createdAt,value
2023-04-18T00:03:57.609Z,4.22
2023-04-18T00:06:39.296Z,3.63
2023-04-18T00:09:13.831Z,3.42
2023-04-18T00:11:52.183Z,3.20
2023-04-18T00:14:54.160Z,6.28
2023-04-18T00:17:33.521Z,5.55
2023-04-18T00:20:12.115Z,3.80
2023-04-18T00:23:02.502Z,4.10
2023-04-18T00:26:04.982Z,3.50
2023-04-18T00:28:45.116Z,4.07
2023-04-18T00:32:46.837Z,5.60
2023-04-18T00:35:07.068Z,5.88
2023-04-18T00:37:35.095Z,5.25
2023-04-18T00:40:02.223Z,4.35
2023-04-18T00:42:32.233Z,3.75
2023-04-18T00:45:01.669Z,2.85
2023-04-18T00:47:31.668Z,3.03
2023-04-18T00:50:28.855Z,2.95
2023-04-18T00:53:01.478Z,4.18
2023-04-18T00:55:58.962Z,3.67
2023-04-18T00:58:59.753Z,3.58
2023-04-18T01:01:47.496Z,2.60
2023-04-18T01:04:30.105Z,2.70
2023-04-18T01:09:46.691Z,3.17
2023-04-18T01:12:16.424Z,4.25
2023-04-18T01:15:12.903Z,3.35
2023-04-18T01:17:46.432Z,4.32
2023-04-18T01:20:14.014Z,3.63
2023-04-18T01:22:53.669Z,5.57
2023-04-18T01:25:43.624Z,2.90
2023-04-18T01:28:20.158Z,4.38
2023-04-18T01:33:41.291Z,3.55
2023-04-18T01:36:15.742Z,5.70
2023-04-18T01:39:06.225Z,3.55
2023-04-18T01:41:41.388Z,3.00
2023-04-18T01:44:17.972Z,3.20
2023-04-18T01:47:15.853Z,3.38
2023-04-18T01:49:52.598Z,5.03
2023-04-18T01:52:49.977Z,3.85
2023-04-18T01:55:28.865Z,2.75
2023-04-18T01:57:56.088Z,3.28
2023-04-18T02:00:24.476Z,2.90
2023-04-18T02:02:54.810Z,3.17
2023-04-18T02:05:22.005Z,4.38
2023-04-18T02:07:52.042Z,5.05
2023-04-18T02:10:28.721Z,3.28
2023-04-18T02:13:01.377Z,2.33
2023-04-18T02:15:29.704Z,3.35
2023-04-18T02:18:03.126Z,3.70
2023-04-18T02:20:37.595Z,4.18
2023-04-18T02:23:11.915Z,3.05
2023-04-18T02:25:40.024Z,3.47
2023-04-18T02:28:17.105Z,2.47
2023-04-18T02:30:44.159Z,2.83
2023-04-18T02:33:14.823Z,2.72
2023-04-18T02:35:42.750Z,4.97
2023-04-18T02:38:17.458Z,3.38
2023-04-18T02:40:44.565Z,2.75
2023-04-18T02:43:11.609Z,14.75
2023-04-18T02:45:38.836Z,3.22
2023-04-18T02:48:05.837Z,4.18
2023-04-18T02:50:32.879Z,3.85
2023-04-18T02:53:00.477Z,4.65
2023-04-18T02:55:35.788Z,2.42
2023-04-18T02:58:02.894Z,2.63
2023-04-18T03:00:29.930Z,4.90
2023-04-18T03:03:00.288Z,4.57
2023-04-18T03:05:27.346Z,2.60
2023-04-18T03:07:57.123Z,4.22
2023-04-18T03:10:24.314Z,3.28
2023-04-18T03:12:54.457Z,4.75
2023-04-18T03:15:24.362Z,2.97
2023-04-18T03:17:51.577Z,2.40
2023-04-18T03:20:21.258Z,3.47
2023-04-18T03:22:48.277Z,5.88
2023-04-18T03:25:15.782Z,4.57
2023-04-18T03:27:47.745Z,3.60
2023-04-18T03:30:15.879Z,2.90
2023-04-18T03:32:49.182Z,6.32
2023-04-18T03:35:29.931Z,2.40
2023-04-18T03:37:57.814Z,3.90
2023-04-18T03:40:25.150Z,3.00
2023-04-18T03:42:52.211Z,2.75
2023-04-18T03:45:19.133Z,2.85
2023-04-18T03:47:46.472Z,3.33
2023-04-18T03:50:13.440Z,4.53
2023-04-18T03:52:40.558Z,6.60
2023-04-18T03:55:07.812Z,2.72
2023-04-18T03:57:37.969Z,4.07
2023-04-18T04:00:06.179Z,3.47
2023-04-18T04:02:36.593Z,3.10
2023-04-18T04:05:03.870Z,3.15
2023-04-18T04:07:32.312Z,2.55
2023-04-18T04:09:59.355Z,4.97
2023-04-18T04:12:29.442Z,3.78
2023-04-18T04:15:07.663Z,3.83
2023-04-18T04:17:37.722Z,3.75
2023-04-18T04:20:05.636Z,4.65
2023-04-18T04:22:33.057Z,7.22
2023-04-18T04:25:06.832Z,3.75
2023-04-18T04:27:39.263Z,3.85
2023-04-18T04:30:11.914Z,5.65
2023-04-18T04:32:43.278Z,4.20
2023-04-18T04:35:14.596Z,4.57
2023-04-18T04:37:48.201Z,3.58
2023-04-18T04:40:15.958Z,6.53
2023-04-18T04:42:46.203Z,4.53
2023-04-18T04:45:15.947Z,5.07
2023-04-18T04:47:49.127Z,6.75
2023-04-18T04:50:16.162Z,4.05
2023-04-18T04:52:49.498Z,7.10
2023-04-18T04:55:17.709Z,7.50
2023-04-18T04:57:48.076Z,4.05
2023-04-18T05:00:21.932Z,2.97
2023-04-18T05:02:49.711Z,4.45
2023-04-18T05:05:17.929Z,4.25
2023-04-18T05:07:47.953Z,3.08
2023-04-18T05:10:25.404Z,6.90
2023-04-18T05:13:04.797Z,4.15
2023-04-18T05:15:35.298Z,7.38
2023-04-18T05:18:10.062Z,5.07
2023-04-18T05:20:38.725Z,6.57
2023-04-18T05:23:05.721Z,3.92
2023-04-18T05:25:35.921Z,4.97
2023-04-18T05:28:09.312Z,6.88
2023-04-18T05:31:04.357Z,5.57
2023-04-18T05:33:33.937Z,4.55
2023-04-18T05:36:04.334Z,5.47
2023-04-18T05:38:31.391Z,6.45
2023-04-18T05:41:00.584Z,6.97
2023-04-18T05:43:29.121Z,6.50
2023-04-18T05:45:58.957Z,6.13
2023-04-18T05:48:26.143Z,6.38
2023-04-18T05:50:59.431Z,6.38
2023-04-18T05:53:33.945Z,7.35
2023-04-18T05:56:04.004Z,6.43
2023-04-18T05:58:33.840Z,7.28
2023-04-18T06:01:01.067Z,4.93
2023-04-18T06:03:28.469Z,6.05
2023-04-18T06:06:00.499Z,9.35
2023-04-18T06:08:27.714Z,5.28
2023-04-18T06:10:54.753Z,6.68
2023-04-18T06:13:27.819Z,6.07
2023-04-18T06:15:55.004Z,5.18
2023-04-18T06:18:22.076Z,4.55
2023-04-18T06:20:49.188Z,4.93
2023-04-18T06:23:22.087Z,5.95
2023-04-18T06:25:55.410Z,8.52
2023-04-18T06:28:27.523Z,7.22
2023-04-18T06:30:57.499Z,6.07
2023-04-18T06:33:36.849Z,8.45
2023-04-18T06:36:05.790Z,8.30
2023-04-18T06:38:38.869Z,10.43
2023-04-18T06:41:05.948Z,10.70
2023-04-18T06:43:52.039Z,11.40
2023-04-18T06:46:28.735Z,7.40
2023-04-18T06:48:57.460Z,5.78
2023-04-18T06:51:24.657Z,9.20
2023-04-18T06:53:54.641Z,12.38
2023-04-18T06:56:21.902Z,10.07
2023-04-18T06:58:53.185Z,11.02
2023-04-18T07:01:20.488Z,8.98
2023-04-18T07:03:47.677Z,8.65
2023-04-18T07:06:15.910Z,9.75
2023-04-18T07:08:49.064Z,8.63
2023-04-18T07:11:18.654Z,9.48
2023-04-18T07:13:49.661Z,10.55
2023-04-18T07:16:19.982Z,10.15
2023-04-18T07:18:51.295Z,9.00
2023-04-18T07:21:25.863Z,9.63
2023-04-18T07:23:56.548Z,11.27
2023-04-18T07:26:43.294Z,10.60
2023-04-18T07:29:10.225Z,10.57
2023-04-18T07:31:39.455Z,13.68
2023-04-18T07:34:06.608Z,13.82
2023-04-18T07:36:42.461Z,12.25
2023-04-18T07:39:09.842Z,11.32
2023-04-18T07:41:36.829Z,14.10
2023-04-18T07:44:16.298Z,10.25
2023-04-18T07:46:43.782Z,12.80
2023-04-18T07:49:14.092Z,12.43
2023-04-18T07:51:44.504Z,14.45
2023-04-18T07:54:11.669Z,14.43
2023-04-18T07:56:38.916Z,13.98
2023-04-18T07:59:06.140Z,12.82
2023-04-18T08:01:33.511Z,18.90
2023-04-18T08:04:02.337Z,13.65
2023-04-18T08:06:30.996Z,13.65
2023-04-18T08:08:59.622Z,10.98
2023-04-18T08:11:32.605Z,14.00
2023-04-18T08:14:00.089Z,11.98
2023-04-18T08:16:27.702Z,12.68
2023-04-18T08:18:54.704Z,17.05
2023-04-18T08:21:24.982Z,11.75
2023-04-18T08:23:52.085Z,8.77
2023-04-18T08:26:28.261Z,8.93
2023-04-18T08:29:02.820Z,9.85
2023-04-18T08:31:31.894Z,14.50
2023-04-18T08:33:59.047Z,14.95
2023-04-18T08:36:26.649Z,11.70
2023-04-18T08:38:56.701Z,7.90
2023-04-18T08:41:27.725Z,8.00
2023-04-18T08:43:59.323Z,6.25
2023-04-18T08:46:36.120Z,13.15
2023-04-18T08:49:06.466Z,9.20
2023-04-18T08:51:34.782Z,10.10
2023-04-18T08:54:06.570Z,14.63
2023-04-18T08:56:38.060Z,12.05
2023-04-18T08:59:08.440Z,15.60
2023-04-18T09:02:07.905Z,8.02
2023-04-18T09:04:42.444Z,10.25
2023-04-18T09:07:17.273Z,7.05
2023-04-18T09:09:58.027Z,8.10
2023-04-18T09:12:28.037Z,8.82
2023-04-18T09:15:16.940Z,10.70
2023-04-18T09:17:54.427Z,4.63
2023-04-18T09:20:47.860Z,12.05
2023-04-18T09:23:34.023Z,10.45
2023-04-18T09:26:01.012Z,7.55
2023-04-18T09:28:43.149Z,6.97
2023-04-18T09:31:13.356Z,15.20
2023-04-18T09:33:57.145Z,18.90
2023-04-18T09:36:30.624Z,18.75
2023-04-18T09:39:04.506Z,20.10
2023-04-18T09:41:39.745Z,15.02
2023-04-18T09:44:25.223Z,20.42
2023-04-18T09:46:52.574Z,16.73
2023-04-18T09:49:23.617Z,24.60
2023-04-18T09:52:04.696Z,13.25
2023-04-18T09:54:38.723Z,15.02
2023-04-18T09:57:11.609Z,7.57
2023-04-18T09:59:51.816Z,15.77
2023-04-18T10:02:26.788Z,14.50
2023-04-18T10:04:56.303Z,7.18
2023-04-18T10:07:43.678Z,8.18
2023-04-18T10:10:11.066Z,6.95
2023-04-18T10:12:41.913Z,9.18
2023-04-18T10:15:11.880Z,11.75
2023-04-18T10:20:35.248Z,7.35
2023-04-18T10:23:31.262Z,5.80
2023-04-18T10:25:59.398Z,7.20
2023-04-18T10:28:33.319Z,8.80
2023-04-18T10:31:10.185Z,5.57
2023-04-18T10:34:05.114Z,7.78
2023-04-18T10:36:38.609Z,6.07
2023-04-18T10:39:57.570Z,7.28
2023-04-18T10:42:59.902Z,6.90
2023-04-18T10:45:34.184Z,7.43
2023-04-18T10:51:18.106Z,5.82
2023-04-18T10:53:57.817Z,4.85
2023-04-18T10:56:26.447Z,6.13
2023-04-18T10:59:02.168Z,7.80
2023-04-18T11:01:37.554Z,7.15
2023-04-18T11:04:14.544Z,5.88
2023-04-18T11:06:53.559Z,6.35
2023-04-18T11:09:24.244Z,5.13
2023-04-18T11:12:12.458Z,4.65
2023-04-18T11:14:45.016Z,4.55
2023-04-18T11:17:22.448Z,4.70
2023-04-18T11:19:50.373Z,5.88
2023-04-18T11:22:21.313Z,3.92
2023-04-18T11:25:14.357Z,4.18
2023-04-18T11:27:43.318Z,3.60
2023-04-18T11:30:11.722Z,4.88
2023-04-18T11:32:41.666Z,3.20
2023-04-18T11:35:12.760Z,3.58
2023-04-18T11:37:46.633Z,7.60
2023-04-18T11:40:14.642Z,3.60
2023-04-18T11:42:42.020Z,4.38
2023-04-18T11:45:21.055Z,3.65
2023-04-18T11:47:56.772Z,5.65
2023-04-18T11:50:24.013Z,3.85
2023-04-18T11:52:53.509Z,4.63
2023-04-18T11:55:23.207Z,5.03
2023-04-18T11:58:04.695Z,6.05
2023-04-18T12:00:43.661Z,4.65
2023-04-18T12:03:19.930Z,3.60
2023-04-18T12:05:51.001Z,3.55
2023-04-18T12:08:21.904Z,4.68
2023-04-18T12:10:53.917Z,3.40
2023-04-18T12:13:32.736Z,5.05
2023-04-18T12:16:02.353Z,3.67
2023-04-18T12:18:32.810Z,4.00
2023-04-18T12:21:09.023Z,3.95
2023-04-18T12:23:51.740Z,6.50
2023-04-18T12:26:20.749Z,2.85
2023-04-18T12:28:51.380Z,4.43
2023-04-18T12:31:31.195Z,3.60
2023-04-18T12:34:01.728Z,3.58
2023-04-18T12:36:39.603Z,3.85
2023-04-18T12:39:07.751Z,3.58
2023-04-18T12:41:48.962Z,5.30
2023-04-18T12:44:16.769Z,2.90
2023-04-18T12:46:46.837Z,3.03
2023-04-18T12:49:13.746Z,5.07
2023-04-18T12:52:18.733Z,3.00
2023-04-18T12:54:51.659Z,4.03
2023-04-18T12:57:26.187Z,5.70
2023-04-18T12:59:53.266Z,3.40
2023-04-18T13:02:22.156Z,3.40
2023-04-18T13:04:52.196Z,3.10
2023-04-18T13:07:19.816Z,2.92
2023-04-18T13:09:46.956Z,3.60
2023-04-18T13:12:18.631Z,3.92
2023-04-18T13:14:45.534Z,2.90
2023-04-18T13:17:16.433Z,4.30
2023-04-18T13:19:46.063Z,7.20
2023-04-18T13:22:13.152Z,5.55
2023-04-18T13:24:46.153Z,5.40
2023-04-18T13:27:20.053Z,3.60
2023-04-18T13:29:49.337Z,5.88
2023-04-18T13:32:16.359Z,4.55
2023-04-18T13:34:52.727Z,4.00
2023-04-18T13:37:19.821Z,2.78
2023-04-18T13:39:46.794Z,2.83
2023-04-18T13:42:15.927Z,4.65
2023-04-18T13:44:43.082Z,4.35
2023-04-18T13:47:09.975Z,4.45
2023-04-18T13:50:00.230Z,4.35
2023-04-18T13:52:32.128Z,3.55
2023-04-18T13:55:02.196Z,5.57
2023-04-18T13:57:37.267Z,3.33
2023-04-18T14:00:16.528Z,4.85
2023-04-18T14:02:46.818Z,3.75
2023-04-18T14:05:14.036Z,3.70
2023-04-18T14:07:45.775Z,10.93
2023-04-18T14:10:21.900Z,4.60
2023-04-18T14:12:54.954Z,7.68
2023-04-18T14:15:21.949Z,81.53
2023-04-18T14:17:55.865Z,52.42
2023-04-18T14:20:23.029Z,49.30
2023-04-18T14:23:05.006Z,85.80
2023-04-18T14:25:31.904Z,468.90
2023-04-18T14:28:24.507Z,298.50
2023-04-18T14:31:02.747Z,172.38
2023-04-18T14:33:32.758Z,131.13
2023-04-18T14:36:05.736Z,114.38
2023-04-18T14:38:38.120Z,92.85
2023-04-18T14:43:34.897Z,46.83
2023-04-18T14:46:01.732Z,45.65
2023-04-18T14:48:31.612Z,33.70
2023-04-18T14:50:59.641Z,27.52
2023-04-18T14:53:27.567Z,36.20
2023-04-18T14:55:54.946Z,19.33
2023-04-18T14:58:22.065Z,33.92
2023-04-18T15:00:58.090Z,18.67
2023-04-18T15:03:30.650Z,26.15
2023-04-18T15:05:57.979Z,21.50
2023-04-18T15:08:26.459Z,19.45
2023-04-18T15:10:53.307Z,38.65
2023-04-18T15:13:24.132Z,21.17
2023-04-18T15:15:55.750Z,13.60
2023-04-18T15:18:22.760Z,10.43
2023-04-18T15:20:49.723Z,19.83
2023-04-18T15:23:25.041Z,20.33
2023-04-18T15:25:51.841Z,6.05
2023-04-18T15:31:08.338Z,7.45
2023-04-18T15:33:38.019Z,4.13
2023-04-18T15:36:07.599Z,14.93
2023-04-18T15:38:34.475Z,24.42
2023-04-18T15:41:01.352Z,17.75
2023-04-18T15:43:32.494Z,30.10
2023-04-18T15:46:00.441Z,16.17
2023-04-18T15:48:34.648Z,32.08
2023-04-18T15:51:05.605Z,25.83
2023-04-18T15:53:32.903Z,23.88
2023-04-18T15:56:19.432Z,21.42
2023-04-18T15:58:46.793Z,21.10
2023-04-18T16:01:16.167Z,41.03
2023-04-18T16:03:43.949Z,25.50
2023-04-18T16:06:15.378Z,40.08
2023-04-18T16:08:51.588Z,34.70
2023-04-18T16:11:22.124Z,7.68
2023-04-18T16:13:53.779Z,22.67
2023-04-18T16:16:29.112Z,26.65
2023-04-18T16:18:55.913Z,20.80
2023-04-18T16:21:31.602Z,16.00
2023-04-18T16:24:06.996Z,19.45
2023-04-18T16:26:34.008Z,18.92
2023-04-18T16:29:05.737Z,18.33
2023-04-18T16:31:33.998Z,9.43
2023-04-18T16:34:16.729Z,2.15
2023-04-18T16:36:43.685Z,11.63
2023-04-18T16:39:10.615Z,10.90
2023-04-18T16:41:37.485Z,8.27
2023-04-18T16:44:04.578Z,2.70
2023-04-18T16:46:38.472Z,11.60
2023-04-18T16:49:05.825Z,12.13
2023-04-18T16:51:32.895Z,4.50
2023-04-18T16:54:07.735Z,7.15
2023-04-18T16:56:39.409Z,6.68
2023-04-18T16:59:13.169Z,5.82
2023-04-18T17:01:40.100Z,6.35
2023-04-18T17:04:10.212Z,4.82
2023-04-18T17:06:45.118Z,7.20
2023-04-18T17:09:24.064Z,6.90
2023-04-18T17:11:54.432Z,7.63
2023-04-18T17:14:25.156Z,6.65
2023-04-18T17:16:53.757Z,5.55
2023-04-18T17:19:23.835Z,3.83
2023-04-18T17:21:54.116Z,7.55
2023-04-18T17:24:33.710Z,4.82
2023-04-18T17:27:06.459Z,3.90
2023-04-18T17:29:35.319Z,4.90
2023-04-18T17:32:06.341Z,4.00
2023-04-18T17:34:43.329Z,5.70
2023-04-18T17:37:14.913Z,3.33
2023-04-18T17:39:49.137Z,4.10
2023-04-18T17:45:02.610Z,2.97
2023-04-18T17:47:33.830Z,3.33
2023-04-18T17:50:10.740Z,5.75
2023-04-18T17:52:37.999Z,4.97
2023-04-18T17:55:12.142Z,3.75
2023-04-18T17:57:43.255Z,4.80
2023-04-18T18:00:14.648Z,4.05
2023-04-18T18:02:47.719Z,4.65
2023-04-18T18:05:20.057Z,5.60
2023-04-18T18:07:48.163Z,5.97
2023-04-18T18:10:26.406Z,3.45
2023-04-18T18:12:53.184Z,5.07
2023-04-18T18:15:20.381Z,5.07
2023-04-18T18:17:51.283Z,8.48
2023-04-18T18:20:18.639Z,5.45
2023-04-18T18:22:48.747Z,4.68
2023-04-18T18:25:15.709Z,7.30
2023-04-18T18:27:42.873Z,4.60
2023-04-18T18:30:09.996Z,4.30
2023-04-18T18:32:36.973Z,6.20
2023-04-18T18:35:12.485Z,5.43
2023-04-18T18:37:53.180Z,5.80
2023-04-18T18:40:21.335Z,4.63
2023-04-18T18:42:51.585Z,5.65
2023-04-18T18:45:19.949Z,7.05
2023-04-18T18:47:52.663Z,4.25
2023-04-18T18:50:22.680Z,5.70
2023-04-18T18:52:52.602Z,5.38
2023-04-18T18:55:19.551Z,2.67
2023-04-18T18:57:56.517Z,4.65
2023-04-18T19:00:23.518Z,9.70
2023-04-18T19:02:50.551Z,11.50
2023-04-18T19:05:18.074Z,9.40
2023-04-18T19:07:46.111Z,9.63
2023-04-18T19:10:13.040Z,7.82
2023-04-18T19:12:39.906Z,7.70
2023-04-18T19:15:10.335Z,8.75
2023-04-18T19:17:40.033Z,7.00
2023-04-18T19:20:07.685Z,7.63
2023-04-18T19:22:38.241Z,8.27
2023-04-18T19:25:09.210Z,7.18
2023-04-18T19:27:36.518Z,5.65
2023-04-18T19:30:03.620Z,5.88
2023-04-18T19:32:34.653Z,5.65
2023-04-18T19:35:04.839Z,4.65
2023-04-18T19:37:34.645Z,8.02
2023-04-18T19:40:02.993Z,5.72
2023-04-18T19:42:29.952Z,8.15
2023-04-18T19:45:06.542Z,7.57
2023-04-18T19:47:34.227Z,9.40
2023-04-18T19:50:08.765Z,8.63
2023-04-18T19:52:36.548Z,5.97
2023-04-18T19:55:03.570Z,5.72
2023-04-18T19:57:39.161Z,8.15
2023-04-18T20:00:16.210Z,11.55
2023-04-18T20:02:44.696Z,7.60
2023-04-18T20:05:13.194Z,10.20
2023-04-18T20:07:43.194Z,14.38
2023-04-18T20:10:16.237Z,9.80
2023-04-18T20:12:50.217Z,10.70
2023-04-18T20:15:17.252Z,13.80
2023-04-18T20:17:44.093Z,14.52
2023-04-18T20:20:14.283Z,9.35
2023-04-18T20:22:48.049Z,13.43
2023-04-18T20:25:14.932Z,13.93
2023-04-18T20:27:54.503Z,10.38
2023-04-18T20:30:22.499Z,10.38
2023-04-18T20:32:52.555Z,8.40
2023-04-18T20:35:28.516Z,10.25
2023-04-18T20:37:55.772Z,10.68
2023-04-18T20:40:30.598Z,9.63
2023-04-18T20:43:07.024Z,10.88
2023-04-18T20:45:37.832Z,11.07
2023-04-18T20:48:10.936Z,9.50
2023-04-18T20:50:44.057Z,14.65
2023-04-18T20:53:13.944Z,9.60
2023-04-18T20:55:44.046Z,9.23
2023-04-18T20:58:14.992Z,11.45
2023-04-18T21:00:50.483Z,9.48
2023-04-18T21:03:19.939Z,8.48
2023-04-18T21:05:47.230Z,10.43
2023-04-18T21:08:14.158Z,12.75
2023-04-18T21:10:41.056Z,8.35
2023-04-18T21:13:13.124Z,8.25
2023-04-18T21:15:55.010Z,9.77
2023-04-18T21:18:31.128Z,8.43
2023-04-18T21:21:08.730Z,7.40
2023-04-18T21:23:42.251Z,10.05
2023-04-18T21:26:17.016Z,11.07
2023-04-18T21:29:04.965Z,6.70
2023-04-18T21:31:34.291Z,8.05
2023-04-18T21:34:05.338Z,6.47
2023-04-18T21:39:27.110Z,11.07
2023-04-18T21:42:09.114Z,10.25
2023-04-18T21:44:36.745Z,8.85
2023-04-18T21:47:06.745Z,6.88
2023-04-18T21:49:56.760Z,7.80
2023-04-18T21:52:23.693Z,6.10
2023-04-18T21:54:59.244Z,5.50
2023-04-18T21:57:33.713Z,10.77
2023-04-18T22:00:16.750Z,9.80
2023-04-18T22:02:45.115Z,6.78
2023-04-18T22:05:20.169Z,9.63
2023-04-18T22:07:57.379Z,7.75
2023-04-18T22:10:26.201Z,7.40
2023-04-18T22:12:54.600Z,7.35
2023-04-18T22:15:22.115Z,8.75
2023-04-18T22:17:50.567Z,8.82
2023-04-18T22:20:23.762Z,9.52
2023-04-18T22:22:59.476Z,10.23
2023-04-18T22:25:31.416Z,7.55
2023-04-18T22:28:06.308Z,8.25
2023-04-18T22:30:41.327Z,9.48
2023-04-18T22:33:17.209Z,8.73
2023-04-18T22:35:44.104Z,7.78
2023-04-18T22:38:13.601Z,10.95
2023-04-18T22:40:41.787Z,12.00
2023-04-18T22:43:11.895Z,10.95
2023-04-18T22:45:45.043Z,10.65
2023-04-18T22:48:13.632Z,12.18
2023-04-18T22:50:43.802Z,13.73
2023-04-18T22:53:17.759Z,17.52
2023-04-18T22:55:55.634Z,22.45
2023-04-18T22:58:37.646Z,19.50
2023-04-18T23:01:04.647Z,19.63
2023-04-18T23:03:40.789Z,15.20
2023-04-18T23:06:08.250Z,18.05
2023-04-18T23:08:44.396Z,15.85
2023-04-18T23:11:13.693Z,14.52
2023-04-18T23:13:52.008Z,28.45
2023-04-18T23:16:18.968Z,15.80
2023-04-18T23:18:45.938Z,10.50
2023-04-18T23:21:17.896Z,8.30
2023-04-18T23:23:52.660Z,8.18
2023-04-18T23:26:22.646Z,9.02
2023-04-18T23:29:18.788Z,7.25
2023-04-18T23:31:45.749Z,8.18
2023-04-18T23:34:18.565Z,6.45
2023-04-18T23:36:53.455Z,10.45
2023-04-18T23:39:21.847Z,9.18
2023-04-18T23:41:56.038Z,5.80
2023-04-18T23:44:23.298Z,5.82
2023-04-18T23:46:50.947Z,4.43
2023-04-18T23:49:17.949Z,7.93
2023-04-18T23:54:34.350Z,5.43
2023-04-18T23:57:02.032Z,7.88
2023-04-18T23:59:28.969Z,4.25
